sensor_id;sensor_type;location;lat;lon;timestamp;P1;durP1;ratioP1;P2;durP2;ratioP2
17347;SDS011;8791;50.876;4.342;2023-12-29T00:01:58;12.00;;;3.70;;
17347;SDS011;8791;50.876;4.342;2023-12-29T00:04:25;8.13;;;2.33;;
17347;SDS011;8791;50.876;4.342;2023-12-29T00:06:52;12.03;;;3.17;;
17347;SDS011;8791;50.876;4.342;2023-12-29T00:09:20;15.80;;;2.27;;
17347;SDS011;8791;50.876;4.342;2023-12-29T00:11:47;19.40;;;2.63;;
17347;SDS011;8791;50.876;4.342;2023-12-29T00:14:15;11.37;;;2.53;;
17347;SDS011;8791;50.876;4.342;2023-12-29T00:16:42;17.57;;;2.53;;
17347;SDS011;8791;50.876;4.342;2023-12-29T00:19:10;9.50;;;1.97;;
17347;SDS011;8791;50.876;4.342;2023-12-29T00:21:37;13.60;;;2.20;;
17347;SDS011;8791;50.876;4.342;2023-12-29T00:24:04;6.80;;;1.60;;
17347;SDS011;8791;50.876;4.342;2023-12-29T00:26:33;15.77;;;2.60;;
17347;SDS011;8791;50.876;4.342;2023-12-29T00:29:00;16.67;;;2.43;;
17347;SDS011;8791;50.876;4.342;2023-12-29T00:31:27;17.13;;;2.07;;
17347;SDS011;8791;50.876;4.342;2023-12-29T00:33:54;9.97;;;1.80;;
17347;SDS011;8791;50.876;4.342;2023-12-29T00:36:21;11.57;;;2.67;;
17347;SDS011;8791;50.876;4.342;2023-12-29T00:38:48;16.20;;;2.90;;
17347;SDS011;8791;50.876;4.342;2023-12-29T00:41:15;9.40;;;1.80;;
17347;SDS011;8791;50.876;4.342;2023-12-29T00:43:44;19.03;;;2.60;;
17347;SDS011;8791;50.876;4.342;2023-12-29T00:46:10;12.30;;;1.97;;
17347;SDS011;8791;50.876;4.342;2023-12-29T00:48:41;7.50;;;2.47;;
17347;SDS011;8791;50.876;4.342;2023-12-29T00:51:08;8.50;;;2.20;;
17347;SDS011;8791;50.876;4.342;2023-12-29T00:53:35;13.97;;;2.40;;
17347;SDS011;8791;50.876;4.342;2023-12-29T00:56:02;12.67;;;2.37;;
17347;SDS011;8791;50.876;4.342;2023-12-29T00:58:29;12.37;;;2.13;;
17347;SDS011;8791;50.876;4.342;2023-12-29T01:00:57;15.37;;;2.47;;
17347;SDS011;8791;50.876;4.342;2023-12-29T01:03:24;14.83;;;2.83;;
17347;SDS011;8791;50.876;4.342;2023-12-29T01:05:51;13.87;;;2.27;;
17347;SDS011;8791;50.876;4.342;2023-12-29T01:08:18;12.27;;;2.53;;
17347;SDS011;8791;50.876;4.342;2023-12-29T01:10:45;12.47;;;1.90;;
17347;SDS011;8791;50.876;4.342;2023-12-29T01:13:12;7.97;;;1.70;;
17347;SDS011;8791;50.876;4.342;2023-12-29T01:15:39;7.03;;;2.30;;
17347;SDS011;8791;50.876;4.342;2023-12-29T01:18:10;13.23;;;1.93;;
17347;SDS011;8791;50.876;4.342;2023-12-29T01:20:37;12.40;;;1.87;;
17347;SDS011;8791;50.876;4.342;2023-12-29T01:23:06;13.47;;;2.50;;
17347;SDS011;8791;50.876;4.342;2023-12-29T01:25:33;14.90;;;2.33;;
17347;SDS011;8791;50.876;4.342;2023-12-29T01:27:59;16.50;;;2.17;;
17347;SDS011;8791;50.876;4.342;2023-12-29T01:30:26;9.23;;;1.63;;
17347;SDS011;8791;50.876;4.342;2023-12-29T01:32:53;12.73;;;2.47;;
17347;SDS011;8791;50.876;4.342;2023-12-29T01:35:21;14.23;;;2.03;;
17347;SDS011;8791;50.876;4.342;2023-12-29T01:37:48;18.13;;;2.00;;
17347;SDS011;8791;50.876;4.342;2023-12-29T01:40:15;5.50;;;1.70;;
17347;SDS011;8791;50.876;4.342;2023-12-29T01:42:42;14.47;;;2.70;;
17347;SDS011;8791;50.876;4.342;2023-12-29T01:45:12;16.83;;;1.93;;
17347;SDS011;8791;50.876;4.342;2023-12-29T01:47:47;10.13;;;1.80;;
17347;SDS011;8791;50.876;4.342;2023-12-29T01:50:14;11.27;;;2.03;;
17347;SDS011;8791;50.876;4.342;2023-12-29T01:52:43;13.03;;;2.20;;
17347;SDS011;8791;50.876;4.342;2023-12-29T01:55:12;9.17;;;2.47;;
17347;SDS011;8791;50.876;4.342;2023-12-29T01:57:41;15.73;;;2.57;;
17347;SDS011;8791;50.876;4.342;2023-12-29T02:00:10;12.43;;;2.33;;
17347;SDS011;8791;50.876;4.342;2023-12-29T02:02:38;8.00;;;1.77;;
17347;SDS011;8791;50.876;4.342;2023-12-29T02:05:05;9.87;;;2.00;;
17347;SDS011;8791;50.876;4.342;2023-12-29T02:07:33;9.83;;;2.50;;
17347;SDS011;8791;50.876;4.342;2023-12-29T02:10:02;10.20;;;2.00;;
17347;SDS011;8791;50.876;4.342;2023-12-29T02:12:29;11.33;;;2.53;;
17347;SDS011;8791;50.876;4.342;2023-12-29T02:14:56;9.03;;;2.03;;
17347;SDS011;8791;50.876;4.342;2023-12-29T02:17:25;13.83;;;2.20;;
17347;SDS011;8791;50.876;4.342;2023-12-29T02:19:54;13.37;;;1.87;;
17347;SDS011;8791;50.876;4.342;2023-12-29T02:22:22;8.60;;;2.03;;
17347;SDS011;8791;50.876;4.342;2023-12-29T02:24:50;10.03;;;1.73;;
17347;SDS011;8791;50.876;4.342;2023-12-29T02:27:29;13.97;;;2.40;;
17347;SDS011;8791;50.876;4.342;2023-12-29T02:30:09;8.13;;;2.17;;
17347;SDS011;8791;50.876;4.342;2023-12-29T02:32:38;9.93;;;2.23;;
17347;SDS011;8791;50.876;4.342;2023-12-29T02:35:07;6.50;;;1.63;;
17347;SDS011;8791;50.876;4.342;2023-12-29T02:37:37;7.40;;;1.53;;
17347;SDS011;8791;50.876;4.342;2023-12-29T02:40:07;11.23;;;2.10;;
17347;SDS011;8791;50.876;4.342;2023-12-29T02:42:35;12.27;;;2.27;;
17347;SDS011;8791;50.876;4.342;2023-12-29T02:45:02;15.30;;;2.57;;
17347;SDS011;8791;50.876;4.342;2023-12-29T02:47:29;12.90;;;2.73;;
17347;SDS011;8791;50.876;4.342;2023-12-29T02:49:56;10.47;;;2.13;;
17347;SDS011;8791;50.876;4.342;2023-12-29T02:52:23;10.80;;;2.03;;
17347;SDS011;8791;50.876;4.342;2023-12-29T02:54:50;7.03;;;1.77;;
17347;SDS011;8791;50.876;4.342;2023-12-29T02:57:18;5.97;;;1.37;;
17347;SDS011;8791;50.876;4.342;2023-12-29T02:59:45;14.63;;;2.60;;
17347;SDS011;8791;50.876;4.342;2023-12-29T03:02:12;8.60;;;2.30;;
17347;SDS011;8791;50.876;4.342;2023-12-29T03:04:39;10.83;;;2.73;;
17347;SDS011;8791;50.876;4.342;2023-12-29T03:07:06;10.97;;;2.40;;
17347;SDS011;8791;50.876;4.342;2023-12-29T03:09:33;10.43;;;1.93;;
17347;SDS011;8791;50.876;4.342;2023-12-29T03:11:59;14.27;;;1.90;;
17347;SDS011;8791;50.876;4.342;2023-12-29T03:14:28;12.63;;;2.23;;
17347;SDS011;8791;50.876;4.342;2023-12-29T03:16:55;11.00;;;2.50;;
17347;SDS011;8791;50.876;4.342;2023-12-29T03:19:22;14.67;;;1.97;;
17347;SDS011;8791;50.876;4.342;2023-12-29T03:21:49;14.67;;;3.23;;
17347;SDS011;8791;50.876;4.342;2023-12-29T03:24:17;12.20;;;1.77;;
17347;SDS011;8791;50.876;4.342;2023-12-29T03:26:44;14.27;;;2.50;;
17347;SDS011;8791;50.876;4.342;2023-12-29T03:29:11;14.20;;;2.07;;
17347;SDS011;8791;50.876;4.342;2023-12-29T03:31:39;8.63;;;1.87;;
17347;SDS011;8791;50.876;4.342;2023-12-29T03:34:06;9.73;;;1.97;;
17347;SDS011;8791;50.876;4.342;2023-12-29T03:36:33;14.30;;;2.33;;
17347;SDS011;8791;50.876;4.342;2023-12-29T03:39:00;15.80;;;2.27;;
17347;SDS011;8791;50.876;4.342;2023-12-29T03:41:27;11.20;;;1.83;;
17347;SDS011;8791;50.876;4.342;2023-12-29T03:43:54;9.70;;;1.93;;
17347;SDS011;8791;50.876;4.342;2023-12-29T03:46:22;9.23;;;2.17;;
17347;SDS011;8791;50.876;4.342;2023-12-29T03:48:50;16.87;;;2.30;;
17347;SDS011;8791;50.876;4.342;2023-12-29T03:51:18;9.13;;;2.37;;
17347;SDS011;8791;50.876;4.342;2023-12-29T03:53:45;10.23;;;2.37;;
17347;SDS011;8791;50.876;4.342;2023-12-29T03:56:13;10.67;;;2.13;;
17347;SDS011;8791;50.876;4.342;2023-12-29T03:58:41;17.40;;;2.40;;
17347;SDS011;8791;50.876;4.342;2023-12-29T04:01:09;13.67;;;2.87;;
17347;SDS011;8791;50.876;4.342;2023-12-29T04:03:37;14.67;;;2.07;;
17347;SDS011;8791;50.876;4.342;2023-12-29T04:06:05;18.00;;;2.63;;
17347;SDS011;8791;50.876;4.342;2023-12-29T04:08:32;16.83;;;2.50;;
17347;SDS011;8791;50.876;4.342;2023-12-29T04:10:59;7.40;;;1.80;;
17347;SDS011;8791;50.876;4.342;2023-12-29T04:13:27;17.03;;;2.93;;
17347;SDS011;8791;50.876;4.342;2023-12-29T04:15:54;10.50;;;1.90;;
17347;SDS011;8791;50.876;4.342;2023-12-29T04:18:21;10.03;;;2.03;;
17347;SDS011;8791;50.876;4.342;2023-12-29T04:20:49;15.03;;;2.77;;
17347;SDS011;8791;50.876;4.342;2023-12-29T04:23:17;5.77;;;1.90;;
17347;SDS011;8791;50.876;4.342;2023-12-29T04:25:44;9.93;;;2.50;;
17347;SDS011;8791;50.876;4.342;2023-12-29T04:28:11;6.30;;;1.93;;
17347;SDS011;8791;50.876;4.342;2023-12-29T04:30:38;9.70;;;1.77;;
17347;SDS011;8791;50.876;4.342;2023-12-29T04:33:05;12.53;;;2.23;;
17347;SDS011;8791;50.876;4.342;2023-12-29T04:35:32;11.23;;;2.30;;
17347;SDS011;8791;50.876;4.342;2023-12-29T04:37:59;11.53;;;2.50;;
17347;SDS011;8791;50.876;4.342;2023-12-29T04:40:27;13.37;;;2.40;;
17347;SDS011;8791;50.876;4.342;2023-12-29T04:42:54;13.27;;;2.23;;
17347;SDS011;8791;50.876;4.342;2023-12-29T04:45:21;18.40;;;2.67;;
17347;SDS011;8791;50.876;4.342;2023-12-29T04:47:48;18.17;;;2.30;;
17347;SDS011;8791;50.876;4.342;2023-12-29T04:50:14;13.97;;;2.33;;
17347;SDS011;8791;50.876;4.342;2023-12-29T04:52:41;12.77;;;2.47;;
17347;SDS011;8791;50.876;4.342;2023-12-29T04:55:08;19.13;;;2.77;;
17347;SDS011;8791;50.876;4.342;2023-12-29T04:57:37;8.20;;;2.03;;
17347;SDS011;8791;50.876;4.342;2023-12-29T05:00:05;13.40;;;2.33;;
17347;SDS011;8791;50.876;4.342;2023-12-29T05:02:33;15.23;;;2.27;;
17347;SDS011;8791;50.876;4.342;2023-12-29T05:05:00;12.83;;;2.10;;
17347;SDS011;8791;50.876;4.342;2023-12-29T05:07:27;14.30;;;2.23;;
17347;SDS011;8791;50.876;4.342;2023-12-29T05:09:54;15.97;;;1.80;;
17347;SDS011;8791;50.876;4.342;2023-12-29T05:12:20;15.93;;;2.23;;
17347;SDS011;8791;50.876;4.342;2023-12-29T05:14:49;17.20;;;2.90;;
17347;SDS011;8791;50.876;4.342;2023-12-29T05:17:16;11.27;;;2.20;;
17347;SDS011;8791;50.876;4.342;2023-12-29T05:19:43;15.53;;;2.10;;
17347;SDS011;8791;50.876;4.342;2023-12-29T05:22:09;24.53;;;2.80;;
17347;SDS011;8791;50.876;4.342;2023-12-29T05:24:40;17.53;;;2.13;;
17347;SDS011;8791;50.876;4.342;2023-12-29T05:27:08;10.97;;;2.17;;
17347;SDS011;8791;50.876;4.342;2023-12-29T05:29:35;15.53;;;2.10;;
17347;SDS011;8791;50.876;4.342;2023-12-29T05:32:03;17.40;;;2.40;;
17347;SDS011;8791;50.876;4.342;2023-12-29T05:34:31;10.53;;;1.77;;
17347;SDS011;8791;50.876;4.342;2023-12-29T05:36:58;11.90;;;2.70;;
17347;SDS011;8791;50.876;4.342;2023-12-29T05:39:25;12.17;;;2.20;;
17347;SDS011;8791;50.876;4.342;2023-12-29T05:41:52;14.27;;;2.57;;
17347;SDS011;8791;50.876;4.342;2023-12-29T05:44:19;13.87;;;2.10;;
17347;SDS011;8791;50.876;4.342;2023-12-29T05:46:46;8.93;;;1.90;;
17347;SDS011;8791;50.876;4.342;2023-12-29T05:49:14;16.93;;;2.20;;
17347;SDS011;8791;50.876;4.342;2023-12-29T05:51:41;20.53;;;2.27;;
17347;SDS011;8791;50.876;4.342;2023-12-29T05:54:09;11.10;;;2.07;;
17347;SDS011;8791;50.876;4.342;2023-12-29T05:56:36;12.77;;;3.10;;
17347;SDS011;8791;50.876;4.342;2023-12-29T05:59:03;11.40;;;2.30;;
17347;SDS011;8791;50.876;4.342;2023-12-29T06:01:30;14.93;;;2.20;;
17347;SDS011;8791;50.876;4.342;2023-12-29T06:03:57;13.63;;;2.20;;
17347;SDS011;8791;50.876;4.342;2023-12-29T06:06:25;16.50;;;2.50;;
17347;SDS011;8791;50.876;4.342;2023-12-29T06:08:52;14.00;;;2.40;;
17347;SDS011;8791;50.876;4.342;2023-12-29T06:11:20;13.87;;;2.67;;
17347;SDS011;8791;50.876;4.342;2023-12-29T06:13:47;11.23;;;2.57;;
17347;SDS011;8791;50.876;4.342;2023-12-29T06:16:17;9.03;;;2.47;;
17347;SDS011;8791;50.876;4.342;2023-12-29T06:18:44;13.60;;;2.63;;
17347;SDS011;8791;50.876;4.342;2023-12-29T06:21:12;14.63;;;2.37;;
17347;SDS011;8791;50.876;4.342;2023-12-29T06:23:40;11.43;;;1.90;;
17347;SDS011;8791;50.876;4.342;2023-12-29T06:26:13;9.40;;;1.80;;
17347;SDS011;8791;50.876;4.342;2023-12-29T06:28:41;9.77;;;2.20;;
17347;SDS011;8791;50.876;4.342;2023-12-29T06:31:08;10.40;;;1.50;;
17347;SDS011;8791;50.876;4.342;2023-12-29T06:33:35;13.77;;;1.80;;
17347;SDS011;8791;50.876;4.342;2023-12-29T06:36:02;9.63;;;2.10;;
17347;SDS011;8791;50.876;4.342;2023-12-29T06:38:29;8.27;;;2.13;;
17347;SDS011;8791;50.876;4.342;2023-12-29T06:41:00;9.10;;;2.10;;
17347;SDS011;8791;50.876;4.342;2023-12-29T06:43:28;11.43;;;2.40;;
17347;SDS011;8791;50.876;4.342;2023-12-29T06:45:55;11.63;;;2.27;;
17347;SDS011;8791;50.876;4.342;2023-12-29T06:48:22;11.17;;;2.17;;
17347;SDS011;8791;50.876;4.342;2023-12-29T06:50:49;11.60;;;1.90;;
17347;SDS011;8791;50.876;4.342;2023-12-29T06:53:16;10.30;;;2.67;;
17347;SDS011;8791;50.876;4.342;2023-12-29T06:55:43;10.23;;;2.40;;
17347;SDS011;8791;50.876;4.342;2023-12-29T06:58:11;14.27;;;2.50;;
17347;SDS011;8791;50.876;4.342;2023-12-29T07:00:38;8.63;;;2.67;;
17347;SDS011;8791;50.876;4.342;2023-12-29T07:03:05;9.83;;;2.17;;
17347;SDS011;8791;50.876;4.342;2023-12-29T07:05:32;8.97;;;2.10;;
17347;SDS011;8791;50.876;4.342;2023-12-29T07:07:59;15.17;;;2.10;;
17347;SDS011;8791;50.876;4.342;2023-12-29T07:10:26;9.63;;;2.20;;
17347;SDS011;8791;50.876;4.342;2023-12-29T07:12:54;10.23;;;2.10;;
17347;SDS011;8791;50.876;4.342;2023-12-29T07:15:22;6.97;;;1.70;;
17347;SDS011;8791;50.876;4.342;2023-12-29T07:17:49;8.33;;;2.20;;
17347;SDS011;8791;50.876;4.342;2023-12-29T07:20:16;7.73;;;2.13;;
17347;SDS011;8791;50.876;4.342;2023-12-29T07:22:43;9.23;;;1.80;;
17347;SDS011;8791;50.876;4.342;2023-12-29T07:25:09;7.03;;;2.20;;
17347;SDS011;8791;50.876;4.342;2023-12-29T07:27:38;4.77;;;1.50;;
17347;SDS011;8791;50.876;4.342;2023-12-29T07:30:05;4.93;;;2.60;;
17347;SDS011;8791;50.876;4.342;2023-12-29T07:32:35;6.73;;;1.47;;
17347;SDS011;8791;50.876;4.342;2023-12-29T07:35:02;8.77;;;1.80;;
17347;SDS011;8791;50.876;4.342;2023-12-29T07:37:29;9.83;;;2.10;;
17347;SDS011;8791;50.876;4.342;2023-12-29T07:39:56;9.07;;;2.07;;
17347;SDS011;8791;50.876;4.342;2023-12-29T07:42:23;8.70;;;2.50;;
17347;SDS011;8791;50.876;4.342;2023-12-29T07:44:50;12.40;;;2.27;;
17347;SDS011;8791;50.876;4.342;2023-12-29T07:47:17;7.23;;;2.00;;
17347;SDS011;8791;50.876;4.342;2023-12-29T07:49:45;10.73;;;2.37;;
17347;SDS011;8791;50.876;4.342;2023-12-29T07:52:12;11.60;;;2.43;;
17347;SDS011;8791;50.876;4.342;2023-12-29T07:54:39;8.60;;;2.93;;
17347;SDS011;8791;50.876;4.342;2023-12-29T07:57:09;12.87;;;3.57;;
17347;SDS011;8791;50.876;4.342;2023-12-29T07:59:35;9.57;;;2.20;;
17347;SDS011;8791;50.876;4.342;2023-12-29T08:02:02;10.20;;;2.10;;
17347;SDS011;8791;50.876;4.342;2023-12-29T08:04:30;10.47;;;2.13;;
17347;SDS011;8791;50.876;4.342;2023-12-29T08:06:58;11.77;;;2.30;;
17347;SDS011;8791;50.876;4.342;2023-12-29T08:09:25;10.00;;;2.13;;
17347;SDS011;8791;50.876;4.342;2023-12-29T08:11:52;11.03;;;2.07;;
17347;SDS011;8791;50.876;4.342;2023-12-29T08:14:19;14.73;;;7.53;;
17347;SDS011;8791;50.876;4.342;2023-12-29T08:16:46;10.03;;;2.13;;
17347;SDS011;8791;50.876;4.342;2023-12-29T08:19:13;11.07;;;1.80;;
17347;SDS011;8791;50.876;4.342;2023-12-29T08:21:41;10.00;;;1.93;;
17347;SDS011;8791;50.876;4.342;2023-12-29T08:24:09;9.07;;;1.83;;
17347;SDS011;8791;50.876;4.342;2023-12-29T08:26:41;7.60;;;1.90;;
17347;SDS011;8791;50.876;4.342;2023-12-29T08:29:10;19.87;;;2.03;;
17347;SDS011;8791;50.876;4.342;2023-12-29T08:31:37;13.93;;;2.17;;
17347;SDS011;8791;50.876;4.342;2023-12-29T08:34:04;9.50;;;2.67;;
17347;SDS011;8791;50.876;4.342;2023-12-29T08:36:30;6.60;;;2.00;;
17347;SDS011;8791;50.876;4.342;2023-12-29T08:38:57;18.57;;;2.40;;
17347;SDS011;8791;50.876;4.342;2023-12-29T08:41:26;14.27;;;2.07;;
17347;SDS011;8791;50.876;4.342;2023-12-29T08:43:52;9.50;;;1.70;;
17347;SDS011;8791;50.876;4.342;2023-12-29T08:46:19;14.70;;;2.63;;
17347;SDS011;8791;50.876;4.342;2023-12-29T08:48:47;9.20;;;2.30;;
17347;SDS011;8791;50.876;4.342;2023-12-29T08:51:14;15.57;;;2.33;;
17347;SDS011;8791;50.876;4.342;2023-12-29T08:53:42;12.70;;;2.00;;
17347;SDS011;8791;50.876;4.342;2023-12-29T08:56:08;15.67;;;2.00;;
17347;SDS011;8791;50.876;4.342;2023-12-29T08:58:37;11.80;;;1.73;;
17347;SDS011;8791;50.876;4.342;2023-12-29T09:01:04;10.43;;;2.00;;
17347;SDS011;8791;50.876;4.342;2023-12-29T09:03:31;7.13;;;1.90;;
17347;SDS011;8791;50.876;4.342;2023-12-29T09:05:58;7.97;;;2.00;;
17347;SDS011;8791;50.876;4.342;2023-12-29T09:08:26;13.83;;;1.73;;
17347;SDS011;8791;50.876;4.342;2023-12-29T09:10:53;21.13;;;2.67;;
17347;SDS011;8791;50.876;4.342;2023-12-29T09:13:20;11.90;;;2.10;;
17347;SDS011;8791;50.876;4.342;2023-12-29T09:15:51;13.97;;;1.80;;
17347;SDS011;8791;50.876;4.342;2023-12-29T09:18:19;12.33;;;2.60;;
17347;SDS011;8791;50.876;4.342;2023-12-29T09:20:46;10.23;;;1.83;;
17347;SDS011;8791;50.876;4.342;2023-12-29T09:23:13;15.10;;;2.40;;
17347;SDS011;8791;50.876;4.342;2023-12-29T09:25:40;14.33;;;2.07;;
17347;SDS011;8791;50.876;4.342;2023-12-29T09:28:07;6.97;;;1.77;;
17347;SDS011;8791;50.876;4.342;2023-12-29T09:30:34;7.77;;;1.57;;
17347;SDS011;8791;50.876;4.342;2023-12-29T09:33:03;9.40;;;1.90;;
17347;SDS011;8791;50.876;4.342;2023-12-29T09:35:31;13.37;;;2.80;;
17347;SDS011;8791;50.876;4.342;2023-12-29T09:37:58;8.10;;;2.27;;
17347;SDS011;8791;50.876;4.342;2023-12-29T09:40:25;12.23;;;2.23;;
17347;SDS011;8791;50.876;4.342;2023-12-29T09:42:52;12.00;;;2.57;;
17347;SDS011;8791;50.876;4.342;2023-12-29T09:45:21;4.93;;;1.60;;
17347;SDS011;8791;50.876;4.342;2023-12-29T09:47:51;8.13;;;1.70;;
17347;SDS011;8791;50.876;4.342;2023-12-29T09:50:21;9.47;;;2.03;;
17347;SDS011;8791;50.876;4.342;2023-12-29T09:52:48;6.67;;;2.93;;
17347;SDS011;8791;50.876;4.342;2023-12-29T09:55:16;7.43;;;2.03;;
17347;SDS011;8791;50.876;4.342;2023-12-29T09:57:43;14.23;;;2.27;;
17347;SDS011;8791;50.876;4.342;2023-12-29T10:00:11;8.53;;;1.93;;
17347;SDS011;8791;50.876;4.342;2023-12-29T10:02:41;12.47;;;2.30;;
17347;SDS011;8791;50.876;4.342;2023-12-29T10:05:09;7.43;;;2.13;;
17347;SDS011;8791;50.876;4.342;2023-12-29T10:07:37;12.77;;;2.07;;
17347;SDS011;8791;50.876;4.342;2023-12-29T10:10:05;10.60;;;2.00;;
17347;SDS011;8791;50.876;4.342;2023-12-29T10:12:33;7.60;;;2.00;;
17347;SDS011;8791;50.876;4.342;2023-12-29T10:15:04;12.87;;;2.40;;
17347;SDS011;8791;50.876;4.342;2023-12-29T10:17:36;10.93;;;2.30;;
17347;SDS011;8791;50.876;4.342;2023-12-29T10:20:21;9.97;;;1.50;;
17347;SDS011;8791;50.876;4.342;2023-12-29T10:22:58;6.80;;;1.83;;
17347;SDS011;8791;50.876;4.342;2023-12-29T10:25:33;5.40;;;1.80;;
17347;SDS011;8791;50.876;4.342;2023-12-29T10:28:00;15.30;;;2.30;;
17347;SDS011;8791;50.876;4.342;2023-12-29T10:30:28;9.87;;;3.13;;
17347;SDS011;8791;50.876;4.342;2023-12-29T10:32:56;7.50;;;2.00;;
17347;SDS011;8791;50.876;4.342;2023-12-29T10:35:25;11.60;;;2.00;;
17347;SDS011;8791;50.876;4.342;2023-12-29T10:37:52;9.87;;;2.13;;
17347;SDS011;8791;50.876;4.342;2023-12-29T10:40:33;12.63;;;1.90;;
17347;SDS011;8791;50.876;4.342;2023-12-29T10:43:00;6.33;;;1.80;;
17347;SDS011;8791;50.876;4.342;2023-12-29T10:45:31;9.63;;;2.77;;
17347;SDS011;8791;50.876;4.342;2023-12-29T10:47:59;10.93;;;1.73;;
17347;SDS011;8791;50.876;4.342;2023-12-29T10:50:26;9.77;;;2.60;;
17347;SDS011;8791;50.876;4.342;2023-12-29T10:52:58;6.77;;;1.67;;
17347;SDS011;8791;50.876;4.342;2023-12-29T10:55:38;8.17;;;2.30;;
17347;SDS011;8791;50.876;4.342;2023-12-29T10:58:05;9.67;;;1.63;;
17347;SDS011;8791;50.876;4.342;2023-12-29T11:00:32;6.80;;;1.47;;
17347;SDS011;8791;50.876;4.342;2023-12-29T11:02:59;14.37;;;1.83;;
17347;SDS011;8791;50.876;4.342;2023-12-29T11:05:26;4.70;;;1.77;;
17347;SDS011;8791;50.876;4.342;2023-12-29T11:07:54;6.23;;;1.90;;
17347;SDS011;8791;50.876;4.342;2023-12-29T11:10:25;4.30;;;1.87;;
17347;SDS011;8791;50.876;4.342;2023-12-29T11:12:52;6.50;;;1.93;;
17347;SDS011;8791;50.876;4.342;2023-12-29T11:15:19;8.97;;;1.97;;
17347;SDS011;8791;50.876;4.342;2023-12-29T11:17:47;9.47;;;2.40;;
17347;SDS011;8791;50.876;4.342;2023-12-29T11:20:18;7.93;;;2.13;;
17347;SDS011;8791;50.876;4.342;2023-12-29T11:22:46;5.53;;;1.50;;
17347;SDS011;8791;50.876;4.342;2023-12-29T11:25:13;8.63;;;1.87;;
17347;SDS011;8791;50.876;4.342;2023-12-29T11:27:42;8.47;;;2.27;;
17347;SDS011;8791;50.876;4.342;2023-12-29T11:30:10;13.07;;;2.17;;
17347;SDS011;8791;50.876;4.342;2023-12-29T11:32:41;8.37;;;1.70;;
17347;SDS011;8791;50.876;4.342;2023-12-29T11:35:17;8.10;;;2.10;;
17347;SDS011;8791;50.876;4.342;2023-12-29T11:38:04;8.10;;;1.97;;
17347;SDS011;8791;50.876;4.342;2023-12-29T11:40:44;12.23;;;1.90;;
17347;SDS011;8791;50.876;4.342;2023-12-29T11:43:16;11.77;;;1.70;;
17347;SDS011;8791;50.876;4.342;2023-12-29T11:45:44;8.97;;;2.37;;
17347;SDS011;8791;50.876;4.342;2023-12-29T11:48:10;5.10;;;1.67;;
17347;SDS011;8791;50.876;4.342;2023-12-29T11:50:38;13.27;;;2.40;;
17347;SDS011;8791;50.876;4.342;2023-12-29T11:53:06;6.30;;;1.83;;
17347;SDS011;8791;50.876;4.342;2023-12-29T11:55:35;8.57;;;2.23;;
17347;SDS011;8791;50.876;4.342;2023-12-29T11:58:02;8.53;;;1.97;;
17347;SDS011;8791;50.876;4.342;2023-12-29T12:00:41;11.40;;;2.70;;
17347;SDS011;8791;50.876;4.342;2023-12-29T12:03:13;12.53;;;2.40;;
17347;SDS011;8791;50.876;4.342;2023-12-29T12:05:47;8.13;;;1.77;;
17347;SDS011;8791;50.876;4.342;2023-12-29T12:13:59;8.83;;;1.93;;
17347;SDS011;8791;50.876;4.342;2023-12-29T12:19:19;10.10;;;2.47;;
17347;SDS011;8791;50.876;4.342;2023-12-29T12:21:46;6.47;;;2.10;;
17347;SDS011;8791;50.876;4.342;2023-12-29T12:24:14;9.83;;;1.90;;
17347;SDS011;8791;50.876;4.342;2023-12-29T12:26:44;4.90;;;1.63;;
17347;SDS011;8791;50.876;4.342;2023-12-29T12:29:12;9.43;;;2.30;;
17347;SDS011;8791;50.876;4.342;2023-12-29T12:31:52;10.00;;;2.83;;
17347;SDS011;8791;50.876;4.342;2023-12-29T12:34:19;6.33;;;3.30;;
17347;SDS011;8791;50.876;4.342;2023-12-29T12:36:50;5.70;;;3.53;;
17347;SDS011;8791;50.876;4.342;2023-12-29T12:39:17;4.87;;;3.93;;
17347;SDS011;8791;50.876;4.342;2023-12-29T12:41:45;3.97;;;3.37;;
17347;SDS011;8791;50.876;4.342;2023-12-29T12:44:12;5.37;;;3.90;;
17347;SDS011;8791;50.876;4.342;2023-12-29T12:46:41;12.50;;;3.87;;
17347;SDS011;8791;50.876;4.342;2023-12-29T12:49:20;9.80;;;8.90;;
17347;SDS011;8791;50.876;4.342;2023-12-29T12:51:48;13.37;;;9.80;;
17347;SDS011;8791;50.876;4.342;2023-12-29T12:54:17;10.27;;;9.27;;
17347;SDS011;8791;50.876;4.342;2023-12-29T12:56:45;10.03;;;9.43;;
17347;SDS011;8791;50.876;4.342;2023-12-29T12:59:13;10.30;;;9.50;;
17347;SDS011;8791;50.876;4.342;2023-12-29T13:01:40;10.43;;;9.50;;
17347;SDS011;8791;50.876;4.342;2023-12-29T13:04:07;11.37;;;10.00;;
17347;SDS011;8791;50.876;4.342;2023-12-29T13:06:39;11.27;;;10.37;;
17347;SDS011;8791;50.876;4.342;2023-12-29T13:09:08;9.80;;;9.20;;
17347;SDS011;8791;50.876;4.342;2023-12-29T13:11:37;10.80;;;9.70;;
17347;SDS011;8791;50.876;4.342;2023-12-29T13:14:05;11.03;;;10.13;;
17347;SDS011;8791;50.876;4.342;2023-12-29T13:16:33;10.40;;;9.33;;
17347;SDS011;8791;50.876;4.342;2023-12-29T13:19:17;12.37;;;8.70;;
17347;SDS011;8791;50.876;4.342;2023-12-29T13:21:47;10.53;;;9.30;;
17347;SDS011;8791;50.876;4.342;2023-12-29T13:24:15;8.70;;;7.80;;
17347;SDS011;8791;50.876;4.342;2023-12-29T13:26:43;15.33;;;8.20;;
17347;SDS011;8791;50.876;4.342;2023-12-29T13:29:11;10.77;;;7.97;;
17347;SDS011;8791;50.876;4.342;2023-12-29T13:31:39;16.00;;;7.83;;
17347;SDS011;8791;50.876;4.342;2023-12-29T13:34:11;13.87;;;7.40;;
17347;SDS011;8791;50.876;4.342;2023-12-29T13:36:41;13.47;;;7.53;;
17347;SDS011;8791;50.876;4.342;2023-12-29T13:39:17;8.40;;;7.60;;
17347;SDS011;8791;50.876;4.342;2023-12-29T13:41:52;8.57;;;7.33;;
17347;SDS011;8791;50.876;4.342;2023-12-29T13:44:20;7.27;;;6.67;;
17347;SDS011;8791;50.876;4.342;2023-12-29T13:46:48;6.40;;;5.80;;
17347;SDS011;8791;50.876;4.342;2023-12-29T13:49:16;8.83;;;6.60;;
17347;SDS011;8791;50.876;4.342;2023-12-29T13:51:43;7.40;;;6.90;;
17347;SDS011;8791;50.876;4.342;2023-12-29T13:54:10;9.33;;;6.60;;
17347;SDS011;8791;50.876;4.342;2023-12-29T13:56:39;15.50;;;7.17;;
17347;SDS011;8791;50.876;4.342;2023-12-29T13:59:17;7.67;;;5.73;;
17347;SDS011;8791;50.876;4.342;2023-12-29T14:01:44;6.83;;;6.20;;
17347;SDS011;8791;50.876;4.342;2023-12-29T14:04:11;6.93;;;6.43;;
17347;SDS011;8791;50.876;4.342;2023-12-29T14:06:49;10.23;;;5.90;;
17347;SDS011;8791;50.876;4.342;2023-12-29T14:09:18;7.37;;;6.20;;
17347;SDS011;8791;50.876;4.342;2023-12-29T14:11:47;9.80;;;6.00;;
17347;SDS011;8791;50.876;4.342;2023-12-29T14:14:14;5.97;;;5.53;;
17347;SDS011;8791;50.876;4.342;2023-12-29T14:16:48;12.50;;;6.43;;
17347;SDS011;8791;50.876;4.342;2023-12-29T14:19:15;10.53;;;5.87;;
17347;SDS011;8791;50.876;4.342;2023-12-29T14:21:42;7.70;;;5.90;;
17347;SDS011;8791;50.876;4.342;2023-12-29T14:24:11;10.27;;;5.97;;
17347;SDS011;8791;50.876;4.342;2023-12-29T14:26:40;7.77;;;5.63;;
17347;SDS011;8791;50.876;4.342;2023-12-29T14:29:12;6.23;;;5.73;;
17347;SDS011;8791;50.876;4.342;2023-12-29T14:31:39;11.87;;;7.47;;
17347;SDS011;8791;50.876;4.342;2023-12-29T14:34:07;7.63;;;5.97;;
17347;SDS011;8791;50.876;4.342;2023-12-29T14:36:35;7.27;;;5.63;;
17347;SDS011;8791;50.876;4.342;2023-12-29T14:39:03;7.70;;;5.97;;
17347;SDS011;8791;50.876;4.342;2023-12-29T14:41:31;8.83;;;4.90;;
17347;SDS011;8791;50.876;4.342;2023-12-29T14:43:58;7.03;;;5.67;;
17347;SDS011;8791;50.876;4.342;2023-12-29T14:46:27;6.60;;;5.97;;
17347;SDS011;8791;50.876;4.342;2023-12-29T14:48:56;4.20;;;3.77;;
17347;SDS011;8791;50.876;4.342;2023-12-29T14:51:23;4.33;;;4.03;;
17347;SDS011;8791;50.876;4.342;2023-12-29T14:53:50;4.53;;;3.60;;
17347;SDS011;8791;50.876;4.342;2023-12-29T14:56:17;4.20;;;3.00;;
17347;SDS011;8791;50.876;4.342;2023-12-29T14:58:44;3.07;;;2.77;;
17347;SDS011;8791;50.876;4.342;2023-12-29T15:01:12;6.03;;;3.33;;
17347;SDS011;8791;50.876;4.342;2023-12-29T15:03:40;12.40;;;7.90;;
17347;SDS011;8791;50.876;4.342;2023-12-29T15:06:07;8.63;;;5.07;;
17347;SDS011;8791;50.876;4.342;2023-12-29T15:08:34;7.37;;;3.00;;